Time;durP1;ratioP1;P1;durP2;ratioP2;P2;SDS_P1;SDS_P2;PMS_P1;PMS_P2;Temp;Humidity;BMP_temperature;BMP_pressure;BME280_temperature;BME280_humidity;BME280_pressure;Samples;Min_cycle;Max_cycle;Signal;HPM_P1;HPM_P2
2021/06/15 00:02:15;;;;;;;17.85;3.38;;;12.50;99.90;;;;;;5092136;28;20020;-75
2021/06/15 00:04:41;;;;;;;14.90;3.28;;;12.50;99.90;;;;;;5091883;28;20524;-75
2021/06/15 00:07:06;;;;;;;21.27;4.35;;;12.50;99.90;;;;;;5090816;28;20068;-75
2021/06/15 00:09:32;;;;;;;17.70;4.15;;;12.50;99.90;;;;;;5090285;28;20103;-75
2021/06/15 00:11:57;;;;;;;15.30;4.45;;;12.50;99.90;;;;;;5071945;28;20048;-75
2021/06/15 00:14:23;;;;;;;12.23;3.67;;;12.50;99.90;;;;;;5071563;28;20653;-75
2021/06/15 00:16:49;;;;;;;17.98;3.70;;;12.50;99.90;;;;;;5071853;28;20496;-75
2021/06/15 00:19:14;;;;;;;14.80;3.85;;;12.50;99.90;;;;;;5070574;28;20457;-75
2021/06/15 00:21:40;;;;;;;19.02;5.20;;;12.50;99.90;;;;;;5070927;28;20032;-75
2021/06/15 00:24:06;;;;;;;15.43;4.93;;;12.50;99.90;;;;;;5071411;28;20025;-75
2021/06/15 00:26:32;;;;;;;19.05;4.07;;;12.50;99.90;;;;;;5071664;28;20032;-75
2021/06/15 00:28:57;;;;;;;21.45;4.88;;;12.50;99.90;;;;;;5070441;28;20039;-75
2021/06/15 00:31:24;;;;;;;12.05;4.03;;;12.50;99.90;;;;;;5072761;28;20036;-75
2021/06/15 00:33:51;;;;;;;21.50;4.10;;;12.50;99.90;;;;;;5074250;28;20024;-75
2021/06/15 00:36:16;;;;;;;21.35;4.28;;;12.50;99.90;;;;;;5075573;28;20021;-75
2021/06/15 00:38:42;;;;;;;13.55;4.68;;;12.50;99.90;;;;;;5075570;28;20035;-75
2021/06/15 00:41:08;;;;;;;17.50;4.10;;;12.50;99.90;;;;;;5081000;28;20028;-75
2021/06/15 00:43:33;;;;;;;26.20;4.40;;;12.40;99.90;;;;;;5094780;28;20126;-75
2021/06/15 00:45:59;;;;;;;15.40;4.53;;;12.40;99.90;;;;;;5075278;28;20028;-75
2021/06/15 00:48:31;;;;;;;22.95;5.88;;;12.40;99.90;;;;;;5075375;28;20028;-75
2021/06/15 00:50:58;;;;;;;17.88;4.78;;;12.40;99.90;;;;;;5076170;28;20373;-75
2021/06/15 00:53:24;;;;;;;12.95;4.18;;;12.30;99.90;;;;;;5076380;28;20081;-75
2021/06/15 00:55:52;;;;;;;25.17;4.75;;;12.40;99.90;;;;;;5073727;28;20021;-75
2021/06/15 00:58:17;;;;;;;28.33;6.78;;;12.40;99.90;;;;;;5073872;28;20077;-75
2021/06/15 01:00:43;;;;;;;16.75;4.63;;;12.40;99.90;;;;;;5075064;28;20099;-75
2021/06/15 01:03:10;;;;;;;17.60;3.92;;;12.50;99.90;;;;;;5090354;28;20024;-75
2021/06/15 01:05:36;;;;;;;14.55;4.22;;;12.40;99.90;;;;;;5094985;28;20111;-75
2021/06/15 01:08:19;;;;;;;14.77;3.20;;;12.40;99.90;;;;;;5095339;28;20489;-75
2021/06/15 01:11:10;;;;;;;15.88;3.45;;;12.50;99.90;;;;;;5095008;28;20032;-75
2021/06/15 01:13:36;;;;;;;18.08;4.55;;;12.50;99.90;;;;;;5078203;28;20029;-75
2021/06/15 01:16:17;;;;;;;21.23;4.00;;;12.50;99.90;;;;;;5074526;28;20021;-75
2021/06/15 01:18:50;;;;;;;13.50;4.03;;;12.50;99.90;;;;;;5074841;28;20048;-75
2021/06/15 01:21:18;;;;;;;20.17;5.53;;;12.50;99.90;;;;;;5074674;28;20032;-75
2021/06/15 01:24:00;;;;;;;13.90;4.20;;;12.50;99.90;;;;;;5090056;28;20035;-75
2021/06/15 01:26:56;;;;;;;25.95;5.22;;;12.50;99.90;;;;;;5080444;28;20043;-75
2021/06/15 01:29:33;;;;;;;28.42;6.15;;;12.40;99.90;;;;;;5074654;28;20388;-75
2021/06/15 01:32:06;;;;;;;19.38;5.30;;;12.50;99.90;;;;;;5074453;28;20035;-75
2021/06/15 01:34:35;;;;;;;21.52;4.50;;;12.50;99.90;;;;;;5092438;28;20024;-75
2021/06/15 01:37:14;;;;;;;11.93;3.75;;;12.40;99.90;;;;;;5094625;28;20028;-75
2021/06/15 01:39:49;;;;;;;18.35;5.75;;;12.40;99.90;;;;;;5094643;28;20020;-75
2021/06/15 01:42:26;;;;;;;22.27;4.40;;;12.40;99.90;;;;;;5094291;28;20468;-75
2021/06/15 01:44:58;;;;;;;15.50;4.30;;;12.50;99.90;;;;;;5074758;28;20036;-74
2021/06/15 01:47:27;;;;;;;18.25;4.57;;;12.40;99.90;;;;;;5073018;28;20027;-75
2021/06/15 01:49:55;;;;;;;21.67;4.72;;;12.40;99.90;;;;;;5074120;28;20099;-75
2021/06/15 01:52:26;;;;;;;18.02;4.97;;;12.40;99.90;;;;;;5083660;28;20511;-75
2021/06/15 01:54:54;;;;;;;16.65;4.60;;;12.40;99.90;;;;;;5094267;28;20021;-75
2021/06/15 01:57:21;;;;;;;20.25;4.75;;;12.30;99.90;;;;;;5093160;28;20020;-75
2021/06/15 01:59:48;;;;;;;16.73;5.35;;;12.30;99.90;;;;;;5094150;28;20035;-75
2021/06/15 02:02:16;;;;;;;17.08;6.07;;;12.30;99.90;;;;;;5088099;28;20358;-75
2021/06/15 02:04:46;;;;;;;16.73;5.70;;;12.30;99.90;;;;;;5072487;28;20020;-75
2021/06/15 02:07:19;;;;;;;19.50;5.95;;;12.30;99.90;;;;;;5074020;28;20427;-75
2021/06/15 02:09:48;;;;;;;27.27;6.60;;;12.30;99.90;;;;;;5073655;28;20537;-75
2021/06/15 02:12:16;;;;;;;18.63;5.30;;;12.20;99.90;;;;;;5076348;28;20021;-75
2021/06/15 02:14:43;;;;;;;24.17;5.55;;;12.20;99.90;;;;;;5093753;28;20020;-75
2021/06/15 02:17:13;;;;;;;25.83;5.97;;;12.20;99.90;;;;;;5093914;28;20438;-75
2021/06/15 02:19:40;;;;;;;20.88;5.28;;;12.20;99.90;;;;;;5093764;28;20031;-75
2021/06/15 02:22:12;;;;;;;26.80;5.55;;;12.20;99.90;;;;;;5093833;28;20104;-75
2021/06/15 02:24:42;;;;;;;21.15;4.68;;;12.20;99.90;;;;;;5092966;28;20043;-75
2021/06/15 02:27:10;;;;;;;15.00;4.30;;;12.10;99.90;;;;;;5093772;28;20444;-75
2021/06/15 02:29:36;;;;;;;23.48;5.78;;;12.10;99.90;;;;;;5093629;28;20032;-75
2021/06/15 02:32:04;;;;;;;17.25;4.10;;;12.10;99.90;;;;;;5092362;28;20027;-75
2021/06/15 02:34:33;;;;;;;14.63;4.93;;;12.00;99.90;;;;;;5076710;28;20116;-75
2021/06/15 02:37:00;;;;;;;15.88;4.10;;;12.00;99.90;;;;;;5072273;28;20021;-75
2021/06/15 02:39:33;;;;;;;13.40;4.18;;;12.00;99.90;;;;;;5071644;28;20056;-75
2021/06/15 02:42:00;;;;;;;16.63;4.20;;;12.00;99.90;;;;;;5073339;28;20024;-75
2021/06/15 02:44:31;;;;;;;12.13;3.05;;;12.00;99.90;;;;;;5085187;28;20031;-75
2021/06/15 02:46:58;;;;;;;10.68;3.90;;;12.00;99.90;;;;;;5093384;28;20034;-75
2021/06/15 02:49:29;;;;;;;13.27;3.35;;;12.00;99.90;;;;;;5093363;28;20016;-75
2021/06/15 02:52:05;;;;;;;11.90;4.80;;;12.00;99.90;;;;;;5093148;28;20024;-75
2021/06/15 02:54:34;;;;;;;22.40;5.65;;;12.00;99.90;;;;;;5081767;28;20032;-75
2021/06/15 02:57:02;;;;;;;12.18;4.13;;;12.00;99.90;;;;;;5072999;28;20074;-75
2021/06/15 02:59:28;;;;;;;20.48;5.97;;;11.90;99.90;;;;;;5071180;28;20508;-75
2021/06/15 03:01:54;;;;;;;19.73;5.25;;;11.90;99.90;;;;;;5071623;28;20028;-75
2021/06/15 03:04:20;;;;;;;18.33;5.00;;;11.90;99.90;;;;;;5076921;28;20058;-75
2021/06/15 03:06:46;;;;;;;18.73;4.22;;;11.90;99.90;;;;;;5091851;28;20446;-75
2021/06/15 03:09:13;;;;;;;17.73;4.97;;;11.90;99.90;;;;;;5093058;28;20392;-75
2021/06/15 03:12:22;;;;;;;8.27;3.80;;;11.90;99.90;;;;;;5092653;28;20510;-75
2021/06/15 03:15:07;;;;;;;16.45;4.93;;;11.80;99.90;;;;;;5085620;28;20020;-75
2021/06/15 03:17:35;;;;;;;21.83;4.82;;;11.70;99.90;;;;;;5072607;28;20062;-75
2021/06/15 03:20:09;;;;;;;22.02;5.68;;;11.70;99.90;;;;;;5071082;28;20366;-75
2021/06/15 03:22:49;;;;;;;19.73;4.70;;;11.60;99.90;;;;;;5071279;28;20017;-75
2021/06/15 03:25:19;;;;;;;12.15;4.43;;;11.50;99.90;;;;;;5079661;28;20028;-75
2021/06/15 03:27:53;;;;;;;16.52;5.28;;;11.50;99.90;;;;;;5092666;28;20020;-75
2021/06/15 03:30:20;;;;;;;11.65;4.20;;;11.50;99.90;;;;;;5092244;28;20081;-75
2021/06/15 03:32:49;;;;;;;9.02;3.70;;;11.40;99.90;;;;;;5092571;28;20392;-75
2021/06/15 03:35:17;;;;;;;12.15;4.10;;;11.30;99.90;;;;;;5090676;28;20103;-75
2021/06/15 03:37:52;;;;;;;14.45;4.40;;;11.30;99.90;;;;;;5091298;28;20381;-75
2021/06/15 03:40:22;;;;;;;10.40;3.90;;;11.20;99.90;;;;;;5092407;28;20078;-75
2021/06/15 03:42:50;;;;;;;10.45;4.38;;;11.10;99.90;;;;;;5091039;28;20120;-75
2021/06/15 03:45:15;;;;;;;15.32;4.22;;;11.10;99.90;;;;;;5090054;28;20028;-75
2021/06/15 03:47:43;;;;;;;14.98;4.13;;;11.10;99.90;;;;;;5072129;28;20039;-75
2021/06/15 03:50:10;;;;;;;13.88;5.03;;;11.00;99.90;;;;;;5072012;28;20064;-75
2021/06/15 03:52:39;;;;;;;14.32;4.47;;;11.00;99.90;;;;;;5070681;28;20553;-75
2021/06/15 03:55:08;;;;;;;9.68;3.58;;;10.90;99.90;;;;;;5071850;28;20056;-75
2021/06/15 03:57:41;;;;;;;9.05;4.20;;;10.90;99.90;;;;;;5089841;28;20035;-75
2021/06/15 04:00:08;;;;;;;10.82;4.68;;;10.90;99.90;;;;;;5090639;28;20037;-75
2021/06/15 04:02:38;;;;;;;13.10;4.32;;;10.90;99.90;;;;;;5090796;28;20115;-75
2021/06/15 04:05:05;;;;;;;15.15;5.05;;;10.90;99.90;;;;;;5090655;28;20388;-74
2021/06/15 04:07:33;;;;;;;11.70;5.05;;;11.00;99.90;;;;;;5076649;28;20027;-75
2021/06/15 04:10:00;;;;;;;13.30;4.63;;;11.20;99.90;;;;;;5071513;28;20056;-75
2021/06/15 04:12:26;;;;;;;18.48;4.28;;;11.30;99.90;;;;;;5071758;28;20042;-75
2021/06/15 04:14:53;;;;;;;28.30;6.03;;;11.40;99.90;;;;;;5071576;28;20017;-75
2021/06/15 04:17:22;;;;;;;27.02;5.47;;;11.50;99.90;;;;;;5081764;28;20394;-75
2021/06/15 04:19:53;;;;;;;16.33;6.00;;;11.60;99.90;;;;;;5091919;28;20020;-75
2021/06/15 04:22:20;;;;;;;17.55;5.28;;;11.80;99.90;;;;;;5091956;28;20430;-75
2021/06/15 04:24:48;;;;;;;14.30;4.85;;;11.90;99.90;;;;;;5091780;28;20432;-75
2021/06/15 04:27:20;;;;;;;17.15;4.25;;;12.00;99.90;;;;;;5084908;28;20020;-75
2021/06/15 04:29:46;;;;;;;22.88;5.22;;;12.00;99.90;;;;;;5071576;28;20111;-74
2021/06/15 04:32:13;;;;;;;14.60;4.10;;;12.00;99.90;;;;;;5070338;28;20189;-75
2021/06/15 04:34:43;;;;;;;24.25;4.55;;;12.00;99.90;;;;;;5071333;28;20063;-75
2021/06/15 04:37:11;;;;;;;15.88;3.60;;;12.00;99.90;;;;;;5072945;28;20381;-76
2021/06/15 04:39:42;;;;;;;36.08;4.70;;;12.00;99.90;;;;;;5091665;28;20396;-76
2021/06/15 04:42:13;;;;;;;22.33;4.78;;;12.10;99.90;;;;;;5091770;28;20024;-75
2021/06/15 04:44:43;;;;;;;19.17;4.10;;;12.20;99.90;;;;;;5091554;28;20404;-75
2021/06/15 04:47:29;;;;;;;19.83;3.88;;;12.30;99.90;;;;;;5091247;28;20028;-75
2021/06/15 04:50:00;;;;;;;16.17;3.22;;;12.40;99.90;;;;;;5071347;28;20086;-75
2021/06/15 04:52:27;;;;;;;19.02;4.13;;;12.50;99.90;;;;;;5071480;28;20162;-75
2021/06/15 04:54:54;;;;;;;14.38;3.92;;;12.60;99.90;;;;;;5069977;28;20137;-75
2021/06/15 04:57:29;;;;;;;15.18;3.50;;;12.70;99.90;;;;;;5071249;28;20093;-75
2021/06/15 04:59:59;;;;;;;14.65;2.90;;;12.80;99.90;;;;;;5073740;28;20029;-75
2021/06/15 05:02:25;;;;;;;24.08;4.68;;;12.90;99.90;;;;;;5073897;28;20103;-75
2021/06/15 05:04:52;;;;;;;17.02;3.95;;;13.00;99.90;;;;;;5090046;28;20115;-75
2021/06/15 05:07:22;;;;;;;20.27;3.72;;;13.10;99.90;;;;;;5091499;28;20035;-75
2021/06/15 05:09:54;;;;;;;13.73;2.90;;;13.20;99.90;;;;;;5074508;28;20060;-75
2021/06/15 05:12:22;;;;;;;22.58;4.35;;;13.30;99.90;;;;;;5084539;28;20032;-75
2021/06/15 05:14:49;;;;;;;21.70;4.78;;;13.50;99.90;;;;;;5089940;28;20162;-75
2021/06/15 05:17:18;;;;;;;20.80;4.03;;;13.70;99.90;;;;;;5091354;28;20020;-76
2021/06/15 05:19:44;;;;;;;11.65;2.72;;;13.80;99.90;;;;;;5093655;28;20024;-76
2021/06/15 05:22:28;;;;;;;20.15;3.80;;;14.00;99.90;;;;;;5084932;28;20024;-76
2021/06/15 05:24:56;;;;;;;11.93;3.63;;;14.10;99.90;;;;;;5074580;28;20024;-75
2021/06/15 05:27:33;;;;;;;16.02;3.60;;;14.30;99.90;;;;;;5092103;28;20400;-75
2021/06/15 05:30:00;;;;;;;18.45;2.92;;;14.50;99.90;;;;;;5093694;28;20063;-76
2021/06/15 05:32:29;;;;;;;18.38;3.28;;;14.60;99.90;;;;;;5094829;28;20027;-75
2021/06/15 05:34:55;;;;;;;15.25;3.13;;;14.90;99.90;;;;;;5094545;28;20066;-76
2021/06/15 05:37:21;;;;;;;12.77;2.90;;;15.00;99.90;;;;;;5078099;28;20032;-76
2021/06/15 05:39:46;;;;;;;14.27;3.08;;;15.30;99.90;;;;;;5074372;28;20027;-76
2021/06/15 05:42:12;;;;;;;24.52;4.05;;;15.60;99.90;;;;;;5074414;28;20107;-77
2021/06/15 05:44:40;;;;;;;13.25;2.75;;;15.70;99.90;;;;;;5072946;28;20028;-76
2021/06/15 05:47:08;;;;;;;13.80;3.28;;;15.80;99.90;;;;;;5082035;28;20042;-75
2021/06/15 05:49:34;;;;;;;18.83;3.65;;;15.90;99.90;;;;;;5094394;28;20030;-76
2021/06/15 05:52:04;;;;;;;16.73;3.08;;;16.00;99.90;;;;;;5094389;28;20032;-75
2021/06/15 05:54:30;;;;;;;9.88;2.45;;;16.00;99.90;;;;;;5094272;28;20024;-75
2021/06/15 05:56:56;;;;;;;15.63;2.75;;;16.30;99.90;;;;;;5088236;28;20508;-75
2021/06/15 05:59:23;;;;;;;19.08;2.13;;;16.50;99.90;;;;;;5072773;28;20024;-76
2021/06/15 06:01:49;;;;;;;17.52;3.03;;;16.80;99.90;;;;;;5083093;28;20036;-75
2021/06/15 06:04:17;;;;;;;16.80;3.00;;;17.00;99.90;;;;;;5092321;28;20377;-75
2021/06/15 06:09:27;;;;;;;16.25;2.80;;;17.00;99.90;;;;;;5073698;28;20111;-75
2021/06/15 06:11:52;;;;;;;16.40;3.20;;;16.90;99.90;;;;;;5074715;28;20473;-75
2021/06/15 06:14:18;;;;;;;23.08;2.85;;;16.80;99.90;;;;;;5073490;28;20066;-76
2021/06/15 06:16:44;;;;;;;15.20;2.60;;;16.50;99.90;;;;;;5073437;28;20545;-76
2021/06/15 06:19:11;;;;;;;14.27;2.65;;;16.30;99.90;;;;;;5073558;28;20043;-76
2021/06/15 06:21:37;;;;;;;11.73;1.88;;;16.30;99.90;;;;;;5073433;28;20408;-75
2021/06/15 06:24:07;;;;;;;8.68;1.80;;;16.20;99.90;;;;;;5093246;28;20095;-75
2021/06/15 06:26:33;;;;;;;10.82;1.92;;;16.30;99.90;;;;;;5092421;28;20038;-75
2021/06/15 06:28:59;;;;;;;12.63;2.80;;;16.50;99.90;;;;;;5093625;28;20103;-74
2021/06/15 06:31:25;;;;;;;11.35;2.00;;;16.80;99.90;;;;;;5093423;28;20039;-74
2021/06/15 06:33:51;;;;;;;12.05;1.80;;;16.90;99.90;;;;;;5076198;28;20408;-74
2021/06/15 06:36:17;;;;;;;10.75;2.60;;;16.90;99.90;;;;;;5073264;28;20036;-74
2021/06/15 06:38:48;;;;;;;8.30;1.65;;;16.90;99.90;;;;;;5073468;28;20089;-74
2021/06/15 06:41:15;;;;;;;11.32;1.80;;;16.90;99.90;;;;;;5073038;28;20115;-75
2021/06/15 06:43:40;;;;;;;12.32;2.42;;;16.70;99.90;;;;;;5082505;28;20024;-74
2021/06/15 06:46:06;;;;;;;11.77;2.30;;;16.50;99.90;;;;;;5093282;28;20031;-74
2021/06/15 06:48:32;;;;;;;11.10;1.80;;;16.50;99.90;;;;;;5091944;28;20099;-74
2021/06/15 06:50:57;;;;;;;18.25;2.97;;;16.40;99.90;;;;;;5093123;28;20035;-74
2021/06/15 06:53:23;;;;;;;14.18;3.10;;;16.10;99.90;;;;;;5086971;28;20461;-74
2021/06/15 06:55:48;;;;;;;5.20;1.45;;;16.00;99.90;;;;;;5071356;28;20028;-75
2021/06/15 06:58:14;;;;;;;12.32;2.00;;;15.90;99.90;;;;;;5071468;28;20108;-75
2021/06/15 07:00:39;;;;;;;17.02;2.67;;;15.90;99.90;;;;;;5072646;28;20101;-75
2021/06/15 07:03:05;;;;;;;9.32;1.85;;;16.40;99.90;;;;;;5072966;28;20465;-75
2021/06/15 07:05:31;;;;;;;10.23;1.73;;;16.80;99.90;;;;;;5083526;28;20048;-75
2021/06/15 07:07:56;;;;;;;7.10;1.42;;;17.20;99.90;;;;;;5072158;28;20114;-76
2021/06/15 07:10:22;;;;;;;11.55;2.22;;;17.40;99.90;;;;;;5077404;28;20028;-76
2021/06/15 07:12:49;;;;;;;14.93;2.05;;;17.30;99.90;;;;;;5072423;28;20025;-76
2021/06/15 07:15:15;;;;;;;12.32;1.85;;;17.10;99.90;;;;;;5072311;28;20107;-77
2021/06/15 07:17:41;;;;;;;10.02;1.73;;;17.10;99.90;;;;;;5084766;28;20031;-76
2021/06/15 07:20:08;;;;;;;11.30;2.10;;;17.10;99.90;;;;;;5088842;28;20020;-76
2021/06/15 07:22:34;;;;;;;11.93;2.08;;;17.10;99.90;;;;;;5085168;28;20013;-76
2021/06/15 07:25:00;;;;;;;15.68;2.83;;;16.90;99.90;;;;;;5080886;28;20020;-76
2021/06/15 07:27:26;;;;;;;11.93;2.42;;;16.60;99.90;;;;;;5072196;28;20496;-77
2021/06/15 07:29:52;;;;;;;10.43;2.15;;;16.60;99.90;;;;;;5071936;28;20488;-76
2021/06/15 07:32:17;;;;;;;16.38;3.28;;;16.40;99.90;;;;;;5082360;28;20029;-76
2021/06/15 07:34:43;;;;;;;13.80;2.10;;;16.40;99.90;;;;;;5070820;28;20028;-76
2021/06/15 07:37:08;;;;;;;10.23;2.00;;;16.40;99.90;;;;;;5077018;28;20027;-77
2021/06/15 07:39:34;;;;;;;21.25;2.92;;;16.40;99.90;;;;;;5082253;28;20031;-77
2021/06/15 07:42:00;;;;;;;10.18;2.10;;;16.70;99.90;;;;;;5073012;28;20036;-76
2021/06/15 07:44:26;;;;;;;15.68;3.20;;;17.20;99.90;;;;;;5088485;28;20028;-75
2021/06/15 07:46:54;;;;;;;21.15;2.80;;;17.40;99.90;;;;;;5088376;28;20097;-76
2021/06/15 07:49:21;;;;;;;12.68;1.98;;;17.40;99.90;;;;;;5086834;28;20093;-76
2021/06/15 07:51:46;;;;;;;12.13;2.85;;;18.00;99.90;;;;;;5088463;28;20105;-76
2021/06/15 07:54:12;;;;;;;12.00;2.33;;;18.30;99.90;;;;;;5079857;28;20052;-74
2021/06/15 07:56:38;;;;;;;14.02;2.38;;;18.30;99.90;;;;;;5081908;28;20073;-75
2021/06/15 07:59:03;;;;;;;12.43;2.78;;;18.50;99.90;;;;;;5086575;28;20453;-75
2021/06/15 08:01:29;;;;;;;15.95;2.28;;;18.90;99.90;;;;;;5087716;28;20106;-74
2021/06/15 08:03:55;;;;;;;8.88;1.75;;;19.10;99.90;;;;;;5087752;28;20545;-75
2021/06/15 08:06:21;;;;;;;15.07;2.95;;;18.90;99.90;;;;;;5085609;28;20511;-75
2021/06/15 08:08:46;;;;;;;13.50;3.33;;;18.90;99.90;;;;;;5087557;28;20404;-75
2021/06/15 08:11:12;;;;;;;11.15;2.05;;;18.80;99.90;;;;;;5085735;28;20035;-75
2021/06/15 08:13:37;;;;;;;17.70;2.58;;;18.60;99.90;;;;;;5086136;28;20073;-75
2021/06/15 08:16:04;;;;;;;12.82;2.20;;;18.20;99.90;;;;;;5087324;28;20028;-75
2021/06/15 08:18:30;;;;;;;22.73;3.50;;;17.80;99.90;;;;;;5087659;28;20016;-76
2021/06/15 08:20:57;;;;;;;11.52;2.53;;;17.30;99.90;;;;;;5091816;28;20440;-74
2021/06/15 08:23:24;;;;;;;16.85;2.92;;;16.90;99.90;;;;;;5091825;28;20028;-75
2021/06/15 08:25:50;;;;;;;13.73;2.30;;;16.90;99.90;;;;;;5090054;28;20055;-75
2021/06/15 08:28:16;;;;;;;16.67;3.15;;;17.40;99.90;;;;;;5090575;28;20388;-75
2021/06/15 08:30:42;;;;;;;8.65;1.90;;;18.00;99.90;;;;;;5090371;28;20024;-75
2021/06/15 08:33:08;;;;;;;9.95;1.65;;;18.60;99.90;;;;;;5091649;28;20028;-74
2021/06/15 08:35:34;;;;;;;12.43;2.97;;;19.20;99.90;;;;;;5090305;28;20496;-75
2021/06/15 08:38:00;;;;;;;12.80;2.45;;;19.10;99.90;;;;;;5091671;28;20042;-76
2021/06/15 08:40:26;;;;;;;14.82;2.72;;;18.70;99.90;;;;;;5091448;28;20069;-76
2021/06/15 08:42:51;;;;;;;8.93;2.50;;;18.80;99.90;;;;;;5091646;28;20016;-75
2021/06/15 08:45:17;;;;;;;12.43;2.42;;;19.30;99.90;;;;;;5091560;28;20023;-78
2021/06/15 08:47:45;;;;;;;12.93;2.72;;;19.40;99.90;;;;;;5099347;28;20027;-77
2021/06/15 08:50:14;;;;;;;12.57;2.40;;;19.20;99.90;;;;;;5095734;28;20419;-78
2021/06/15 08:52:40;;;;;;;21.75;2.95;;;18.90;99.90;;;;;;5092220;28;20028;-78
2021/06/15 08:55:07;;;;;;;14.85;2.45;;;18.50;99.90;;;;;;5095272;28;20024;-77
2021/06/15 08:57:37;;;;;;;17.73;4.35;;;18.50;99.90;;;;;;5095659;28;20020;-76
2021/06/15 09:00:10;;;;;;;21.98;3.13;;;18.80;99.90;;;;;;5095468;28;20093;-76
2021/06/15 09:02:46;;;;;;;;;;;19.00;99.90;;;;;;5077586;28;20034;-76
2021/06/15 09:05:23;;;;;;;23.67;3.58;;;18.80;99.90;;;;;;5088111;28;20311;-77
2021/06/15 09:08:05;;;;;;;14.95;3.25;;;18.50;99.90;;;;;;5073709;28;20095;-77
2021/06/15 09:10:37;;;;;;;19.67;4.03;;;18.10;99.90;;;;;;5073287;28;20028;-77
2021/06/15 09:13:03;;;;;;;12.85;3.03;;;17.80;99.90;;;;;;5074860;28;20024;-77
2021/06/15 09:15:29;;;;;;;11.38;2.60;;;17.80;99.90;;;;;;5074695;28;20078;-77
2021/06/15 09:17:55;;;;;;;11.80;2.65;;;18.00;99.90;;;;;;5074419;28;20020;-76
2021/06/15 09:20:31;;;;;;;14.27;2.60;;;18.70;99.90;;;;;;5073762;28;20036;-77
2021/06/15 09:23:11;;;;;;;16.63;2.72;;;19.40;99.90;;;;;;5091251;28;20024;-76
2021/06/15 09:25:37;;;;;;;13.60;2.80;;;19.40;99.90;;;;;;5089063;28;20495;-76
2021/06/15 09:28:22;;;;;;;15.25;3.17;;;19.20;99.90;;;;;;5089637;28;20123;-76
2021/06/15 09:31:06;;;;;;;15.00;3.30;;;18.90;99.90;;;;;;5090365;28;20040;-77
2021/06/15 09:33:46;;;;;;;13.82;2.90;;;19.00;99.90;;;;;;5090645;28;20031;-77
2021/06/15 09:36:15;;;;;;;11.90;3.55;;;19.70;99.90;;;;;;5088664;28;20024;-78
2021/06/15 09:38:57;;;;;;;17.27;3.08;;;19.30;99.90;;;;;;5085423;28;20016;-77
2021/06/15 09:41:36;;;;;;;17.35;3.10;;;19.10;99.90;;;;;;5089834;28;20099;-77
2021/06/15 09:44:22;;;;;;;23.65;4.15;;;18.70;99.90;;;;;;5088962;28;20518;-77
2021/06/15 09:46:53;;;;;;;17.02;2.85;;;18.40;99.90;;;;;;5081357;28;20051;-77
2021/06/15 09:49:29;;;;;;;22.25;3.55;;;18.30;99.90;;;;;;5089886;28;20036;-77
2021/06/15 09:52:16;;;;;;;27.55;3.33;;;18.00;99.90;;;;;;5094493;28;20016;-78
2021/06/15 09:54:47;;;;;;;17.40;3.85;;;17.80;99.90;;;;;;5094149;28;20094;-77
2021/06/15 09:57:20;;;;;;;14.52;3.13;;;18.10;99.90;;;;;;5094483;28;20020;-77
2021/06/15 10:00:10;;;;;;;12.80;2.85;;;18.30;99.90;;;;;;5092767;28;20035;-78
2021/06/15 10:02:57;;;;;;;18.10;4.57;;;18.30;99.90;;;;;;5093061;28;20028;-77
2021/06/15 10:05:37;;;;;;;20.95;4.22;;;18.50;99.90;;;;;;5092472;28;20023;-77
2021/06/15 10:08:05;;;;;;;24.67;5.13;;;18.70;99.90;;;;;;5094306;28;20488;-78
2021/06/15 10:10:38;;;;;;;16.77;2.97;;;19.40;99.90;;;;;;5094891;28;20020;-77
2021/06/15 10:13:04;;;;;;;10.07;2.63;;;20.40;99.90;;;;;;5094386;28;20016;-77
2021/06/15 10:15:31;;;;;;;20.92;3.13;;;20.20;99.90;;;;;;5093892;28;20258;-77
2021/06/15 10:17:58;;;;;;;17.77;3.92;;;20.00;99.90;;;;;;5092473;28;20115;-78
2021/06/15 10:20:31;;;;;;;18.80;3.00;;;19.90;99.90;;;;;;5092497;28;20400;-77
2021/06/15 10:22:58;;;;;;;11.18;2.28;;;20.20;99.90;;;;;;5092691;28;20062;-78
2021/06/15 10:25:25;;;;;;;12.98;2.42;;;20.30;99.90;;;;;;5093585;28;20036;-78
2021/06/15 10:27:54;;;;;;;11.65;2.95;;;20.00;99.90;;;;;;5093697;28;20028;-78
2021/06/15 10:30:31;;;;;;;17.85;2.60;;;19.60;99.90;;;;;;5092208;28;20028;-79
2021/06/15 10:32:59;;;;;;;15.35;3.20;;;19.30;99.90;;;;;;5092488;28;20118;-78
2021/06/15 10:35:47;;;;;;;13.57;3.33;;;20.10;99.90;;;;;;5093394;28;20484;-77
2021/06/15 10:38:25;;;;;;;14.68;2.70;;;20.50;99.90;;;;;;5093318;28;20044;-78
2021/06/15 10:40:54;;;;;;;16.52;2.85;;;19.90;99.90;;;;;;5093315;28;20035;-77
2021/06/15 10:43:28;;;;;;;19.08;3.28;;;19.50;99.90;;;;;;5093445;28;20028;-78
2021/06/15 10:46:00;;;;;;;12.68;2.80;;;19.40;99.90;;;;;;5092024;28;20051;-78
2021/06/15 10:48:32;;;;;;;12.60;2.10;;;19.40;99.90;;;;;;5091990;28;20555;-78
2021/06/15 10:50:59;;;;;;;14.23;2.38;;;19.30;99.90;;;;;;5091805;28;20067;-78
2021/06/15 10:53:40;;;;;;;12.15;3.30;;;19.30;99.90;;;;;;5093192;28;20427;-78
2021/06/15 10:56:08;;;;;;;16.10;2.63;;;19.30;99.90;;;;;;5093163;28;20020;-77
2021/06/15 10:58:43;;;;;;;10.13;2.85;;;19.50;99.90;;;;;;5091817;28;20031;-78
2021/06/15 11:01:17;;;;;;;14.25;2.67;;;20.00;99.90;;;;;;5093027;28;20023;-78
2021/06/15 11:03:55;;;;;;;;;;;20.80;99.90;;;;;;5092013;28;20030;-79
2021/06/15 11:06:36;;;;;;;9.93;2.38;;;20.60;99.90;;;;;;5074263;28;19966;-78
2021/06/15 11:09:17;;;;;;;17.45;2.58;;;20.30;99.90;;;;;;5071279;28;20024;-78
2021/06/15 11:12:05;;;;;;;12.85;2.35;;;20.50;99.90;;;;;;5072350;28;20031;-78
2021/06/15 11:14:31;;;;;;;12.40;2.65;;;20.50;99.90;;;;;;5064852;28;20483;-79
2021/06/15 11:17:00;;;;;;;6.88;2.30;;;20.20;99.90;;;;;;5072203;28;20112;-77
2021/06/15 11:19:40;;;;;;;13.07;2.70;;;20.10;99.90;;;;;;5085071;28;20016;-78
2021/06/15 11:22:11;;;;;;;12.23;2.08;;;20.60;99.90;;;;;;5091676;28;20388;-78
2021/06/15 11:24:38;;;;;;;11.98;2.10;;;21.20;99.90;;;;;;5092367;28;20020;-78
2021/06/15 11:27:20;;;;;;;13.98;2.72;;;20.80;99.90;;;;;;5071262;28;20124;-77
2021/06/15 11:29:50;;;;;;;12.68;1.98;;;20.20;99.90;;;;;;5072292;28;20055;-77
2021/06/15 11:32:23;;;;;;;14.73;2.60;;;19.90;99.90;;;;;;5072284;28;20028;-77
2021/06/15 11:34:55;;;;;;;11.38;2.17;;;19.50;99.90;;;;;;5070725;28;20503;-77
2021/06/15 11:37:22;;;;;;;8.00;1.85;;;19.20;99.90;;;;;;5072251;28;20028;-77
2021/06/15 11:39:48;;;;;;;11.13;1.88;;;19.10;99.90;;;;;;5072013;28;20496;-77
2021/06/15 11:42:24;;;;;;;9.43;2.72;;;19.00;99.90;;;;;;5071002;28;20032;-77
2021/06/15 11:45:09;;;;;;;9.23;1.70;;;19.60;99.90;;;;;;5072080;28;20059;-77
2021/06/15 11:47:52;;;;;;;6.75;1.75;;;20.50;99.90;;;;;;5072113;28;20031;-78
2021/06/15 11:50:21;;;;;;;8.23;2.33;;;21.20;99.90;;;;;;5101259;28;20038;-77
2021/06/15 11:52:56;;;;;;;8.77;1.60;;;21.20;99.90;;;;;;5091068;28;20030;-78
2021/06/15 11:55:32;;;;;;;9.35;2.35;;;21.60;99.90;;;;;;5090852;28;20388;-77
2021/06/15 11:58:06;;;;;;;5.80;1.40;;;21.30;99.90;;;;;;5090865;28;20484;-77
2021/06/15 12:00:35;;;;;;;13.07;1.85;;;20.50;99.90;;;;;;5091645;28;20035;-77
2021/06/15 12:03:10;;;;;;;7.50;1.65;;;20.40;99.90;;;;;;5090896;28;20115;-77
2021/06/15 12:05:37;;;;;;;12.18;1.92;;;20.90;99.90;;;;;;5090697;28;20020;-78
2021/06/15 12:08:03;;;;;;;11.70;1.80;;;21.40;99.90;;;;;;5092092;28;20036;-78
2021/06/15 12:10:29;;;;;;;12.45;2.08;;;21.90;99.90;;;;;;5091953;28;20040;-77
2021/06/15 12:13:16;;;;;;;11.50;1.80;;;22.00;99.90;;;;;;5090708;28;20028;-77
2021/06/15 12:15:53;;;;;;;6.22;1.42;;;22.20;99.90;;;;;;5091738;28;20180;-77
2021/06/15 12:18:21;;;;;;;8.68;1.80;;;22.10;99.90;;;;;;5092006;28;20048;-77
2021/06/15 12:20:50;;;;;;;9.10;2.05;;;22.40;99.90;;;;;;5091895;28;20115;-77
2021/06/15 12:23:27;;;;;;;9.95;1.80;;;22.70;99.90;;;;;;5091872;28;20024;-77
2021/06/15 12:25:55;;;;;;;9.73;2.40;;;23.30;99.90;;;;;;5081034;28;20028;-78
2021/06/15 12:28:23;;;;;;;11.85;2.53;;;23.30;99.90;;;;;;5074087;28;20082;-77
2021/06/15 12:31:24;;;;;;;8.32;1.83;;;22.50;99.90;;;;;;5074554;28;20027;-78
2021/06/15 12:34:10;;;;;;;6.63;2.03;;;21.40;99.90;;;;;;5033146;28;20521;-77
2021/06/15 12:36:38;;;;;;;9.13;2.00;;;20.60;99.90;;;;;;5075273;28;20058;-77
2021/06/15 12:39:11;;;;;;;8.43;2.70;;;20.20;99.90;;;;;;5090268;28;20035;-77
2021/06/15 12:41:40;;;;;;;13.88;2.53;;;19.60;99.90;;;;;;5091396;28;20032;-77
2021/06/15 12:44:06;;;;;;;14.23;2.45;;;19.50;99.90;;;;;;5091081;28;20028;-77
2021/06/15 12:46:33;;;;;;;8.77;1.98;;;19.50;99.90;;;;;;5091311;28;20104;-77
2021/06/15 12:49:19;;;;;;;8.48;1.67;;;19.60;99.90;;;;;;5090901;28;20024;-77
2021/06/15 12:51:50;;;;;;;12.05;2.15;;;19.90;99.90;;;;;;5093879;28;20089;-77
2021/06/15 12:54:46;;;;;;;13.35;2.22;;;19.90;99.90;;;;;;5094479;28;20023;-77
2021/06/15 12:57:20;;;;;;;7.32;1.75;;;19.90;99.90;;;;;;5075217;28;20017;-77